createdAt,value
2022-07-28T00:03:46.264Z,21.53
2022-07-28T00:08:48.169Z,22.42
2022-07-28T00:13:50.141Z,23.21
2022-07-28T00:18:52.269Z,21.46
2022-07-28T00:23:54.312Z,21.28
2022-07-28T00:28:56.209Z,21.52
2022-07-28T00:33:58.240Z,19.74
2022-07-28T00:39:00.165Z,19.78
2022-07-28T00:44:03.076Z,20.71
2022-07-28T00:49:05.634Z,19.89
2022-07-28T00:54:08.134Z,19.01
2022-07-28T00:59:10.281Z,19.70
2022-07-28T01:04:12.531Z,19.99
2022-07-28T01:09:14.488Z,18.09
2022-07-28T01:14:38.419Z,19.98
2022-07-28T01:19:47.126Z,20.83
2022-07-28T01:24:51.653Z,19.35
2022-07-28T01:30:16.162Z,21.76
2022-07-28T01:35:24.130Z,22.55
2022-07-28T01:40:27.756Z,23.01
2022-07-28T01:45:30.098Z,22.62
2022-07-28T01:50:34.368Z,23.85
2022-07-28T01:55:36.988Z,22.66
2022-07-28T02:00:39.093Z,24.01
2022-07-28T02:05:41.969Z,24.25
2022-07-28T02:11:04.558Z,21.16
2022-07-28T02:16:12.445Z,23.01
2022-07-28T02:21:15.185Z,22.29
2022-07-28T02:26:18.000Z,21.98
2022-07-28T02:31:22.832Z,22.39
2022-07-28T02:36:33.709Z,23.25
2022-07-28T02:41:40.228Z,22.01
2022-07-28T02:46:47.859Z,22.91
2022-07-28T02:51:51.834Z,23.95
2022-07-28T02:56:54.551Z,23.86
2022-07-28T03:01:57.254Z,23.14
2022-07-28T03:06:58.969Z,24.82
2022-07-28T03:12:00.846Z,23.40
2022-07-28T03:17:03.278Z,24.30
2022-07-28T03:22:05.616Z,24.93
2022-07-28T03:27:45.954Z,25.68
2022-07-28T03:32:51.546Z,23.90
2022-07-28T03:37:57.971Z,24.70
2022-07-28T03:43:03.698Z,24.96
2022-07-28T03:48:08.374Z,26.25
2022-07-28T03:53:25.344Z,24.40
2022-07-28T03:58:28.971Z,24.21
2022-07-28T04:03:35.913Z,26.37
2022-07-28T04:08:45.588Z,28.11
2022-07-28T04:13:47.487Z,26.99
2022-07-28T04:18:49.432Z,27.09
2022-07-28T04:23:51.411Z,28.00
2022-07-28T04:28:53.371Z,26.14
2022-07-28T04:33:55.323Z,27.64
2022-07-28T04:38:59.444Z,28.16
2022-07-28T04:44:01.372Z,26.60
2022-07-28T04:49:04.471Z,27.70
2022-07-28T04:54:06.636Z,29.21
2022-07-28T04:59:08.558Z,28.77
2022-07-28T05:04:12.566Z,27.86
2022-07-28T05:09:14.919Z,29.02
2022-07-28T05:14:17.602Z,29.71
2022-07-28T05:19:19.580Z,28.21
2022-07-28T05:24:21.423Z,29.48
2022-07-28T05:29:23.650Z,29.64
2022-07-28T05:34:25.655Z,28.02
2022-07-28T05:39:27.691Z,29.56
2022-07-28T05:44:30.890Z,29.79
2022-07-28T05:49:35.499Z,30.04
2022-07-28T05:54:37.484Z,30.20
2022-07-28T05:59:39.449Z,32.00
2022-07-28T06:04:41.344Z,30.80
2022-07-28T06:09:45.232Z,32.01
2022-07-28T06:14:47.350Z,32.57
2022-07-28T06:19:49.353Z,33.34
2022-07-28T06:24:51.187Z,30.81
2022-07-28T06:29:53.111Z,31.68
2022-07-28T06:34:55.002Z,32.64
2022-07-28T06:39:56.966Z,32.71
2022-07-28T06:44:59.973Z,33.34
2022-07-28T06:50:02.738Z,33.43
2022-07-28T06:55:05.826Z,33.56
2022-07-28T07:00:10.990Z,33.85
2022-07-28T07:05:13.012Z,34.54
2022-07-28T07:10:15.025Z,34.75
2022-07-28T07:15:17.043Z,34.85
2022-07-28T07:20:18.984Z,36.07
2022-07-28T07:25:21.056Z,33.67
2022-07-28T07:30:22.944Z,33.98
2022-07-28T07:35:24.979Z,30.97
2022-07-28T07:40:26.949Z,29.83
2022-07-28T07:45:28.895Z,29.88
2022-07-28T07:50:30.949Z,28.75
2022-07-28T07:55:37.227Z,28.95
2022-07-28T08:00:39.801Z,28.52
2022-07-28T08:05:41.823Z,28.45
2022-07-28T08:10:44.289Z,28.79
2022-07-28T08:15:46.893Z,27.91
2022-07-28T08:20:48.874Z,27.79
2022-07-28T08:25:50.854Z,27.23
2022-07-28T08:30:52.853Z,25.36
2022-07-28T08:35:54.792Z,25.90
2022-07-28T08:40:57.522Z,25.33
2022-07-28T08:46:01.527Z,25.99
2022-07-28T08:51:11.538Z,23.54
2022-07-28T08:56:15.943Z,23.48
2022-07-28T09:01:17.906Z,22.33
2022-07-28T09:06:22.077Z,21.70
2022-07-28T09:11:30.525Z,22.01
2022-07-28T09:16:32.767Z,19.36
2022-07-28T09:21:35.109Z,20.31
2022-07-28T09:26:37.125Z,20.17
2022-07-28T09:31:57.001Z,18.37
2022-07-28T09:36:59.609Z,17.25
2022-07-28T09:42:02.192Z,16.74
2022-07-28T09:47:24.154Z,17.81
2022-07-28T09:52:38.867Z,15.53
2022-07-28T09:57:41.598Z,15.45
2022-07-28T10:02:50.277Z,14.73
2022-07-28T10:07:52.601Z,14.36
2022-07-28T10:13:05.174Z,15.18
2022-07-28T10:18:07.215Z,14.46
2022-07-28T10:23:11.807Z,14.22
2022-07-28T10:28:17.524Z,14.87
2022-07-28T10:33:19.920Z,13.99
2022-07-28T10:38:22.429Z,14.05
2022-07-28T10:43:25.752Z,13.49
2022-07-28T10:48:28.131Z,13.74
2022-07-28T10:53:48.796Z,12.76
2022-07-28T10:59:15.725Z,12.45
2022-07-28T11:04:48.879Z,12.71
2022-07-28T11:09:50.952Z,12.23
2022-07-28T11:14:52.861Z,12.46
2022-07-28T11:20:24.633Z,12.97
2022-07-28T11:25:21.882Z,12.35
2022-07-28T11:30:35.938Z,12.01
2022-07-28T11:35:41.046Z,13.08
2022-07-28T11:40:45.343Z,12.96
2022-07-28T11:45:52.604Z,11.94
2022-07-28T11:51:03.546Z,11.83
2022-07-28T11:56:07.590Z,11.70
2022-07-28T12:01:18.215Z,12.63
2022-07-28T12:06:28.663Z,13.31
2022-07-28T12:11:33.407Z,13.46
2022-07-28T12:16:37.110Z,12.62
2022-07-28T12:21:47.704Z,13.08
2022-07-28T12:26:50.627Z,13.19
2022-07-28T12:31:59.664Z,13.57
2022-07-28T12:37:04.008Z,14.11
2022-07-28T12:42:13.218Z,13.09
2022-07-28T12:47:17.764Z,12.69
2022-07-28T12:52:21.824Z,13.41
2022-07-28T12:57:51.629Z,13.33
2022-07-28T13:02:56.584Z,13.02
2022-07-28T13:08:03.897Z,12.91
2022-07-28T13:13:07.712Z,12.89
2022-07-28T13:18:09.703Z,14.93
2022-07-28T13:23:11.531Z,14.28
2022-07-28T13:28:29.410Z,12.68
2022-07-28T13:33:31.541Z,13.94
2022-07-28T13:38:33.663Z,13.42
2022-07-28T13:43:36.277Z,14.58
2022-07-28T13:48:58.149Z,13.08
2022-07-28T13:54:02.306Z,14.52
2022-07-28T13:59:04.146Z,13.10
2022-07-28T14:04:14.775Z,13.01
2022-07-28T14:09:21.375Z,12.26
2022-07-28T14:14:25.380Z,12.71
2022-07-28T14:19:39.115Z,12.75
2022-07-28T14:24:42.461Z,12.88
2022-07-28T14:29:45.770Z,13.20
2022-07-28T14:34:47.737Z,12.65
2022-07-28T14:39:49.573Z,12.42
2022-07-28T14:44:51.485Z,12.79
2022-07-28T14:49:57.991Z,12.05
2022-07-28T14:55:00.649Z,12.70
2022-07-28T15:00:02.822Z,12.21
2022-07-28T15:05:05.898Z,12.67
2022-07-28T15:10:08.331Z,14.31
2022-07-28T15:15:11.319Z,12.74
2022-07-28T15:20:13.364Z,13.76
2022-07-28T15:25:15.196Z,13.83
2022-07-28T15:30:17.153Z,14.20
2022-07-28T15:35:20.441Z,14.56
2022-07-28T15:40:22.734Z,15.05
2022-07-28T15:45:25.666Z,15.07
2022-07-28T15:50:27.737Z,14.50
2022-07-28T15:55:29.698Z,15.00
2022-07-28T16:00:31.557Z,13.96
2022-07-28T16:05:33.644Z,14.82
2022-07-28T16:10:35.775Z,14.35
2022-07-28T16:15:38.069Z,15.01
2022-07-28T16:20:40.080Z,13.89
2022-07-28T16:25:44.949Z,14.31
2022-07-28T16:30:48.175Z,15.13
2022-07-28T16:35:50.174Z,15.36
2022-07-28T16:40:54.372Z,14.49
2022-07-28T16:45:56.404Z,14.91
2022-07-28T16:50:58.292Z,14.86
2022-07-28T16:56:00.236Z,14.10
2022-07-28T17:01:02.181Z,14.99
2022-07-28T17:06:04.179Z,14.40
2022-07-28T17:11:06.437Z,15.49
2022-07-28T17:16:08.430Z,14.36
2022-07-28T17:21:10.501Z,14.90
2022-07-28T17:27:12.942Z,15.66
2022-07-28T17:31:38.679Z,15.85
2022-07-28T17:36:41.979Z,14.82
2022-07-28T17:41:44.325Z,15.37
2022-07-28T17:46:48.003Z,16.05
2022-07-28T17:51:50.315Z,15.31
2022-07-28T17:56:52.927Z,15.59
2022-07-28T18:01:55.975Z,15.22
2022-07-28T18:06:58.080Z,15.49
2022-07-28T18:12:00.040Z,14.90
2022-07-28T18:17:02.284Z,15.90
2022-07-28T18:22:04.237Z,15.46
2022-07-28T18:27:07.160Z,16.53
2022-07-28T18:32:09.747Z,15.80
2022-07-28T18:37:15.232Z,16.44
2022-07-28T18:42:17.823Z,16.15
2022-07-28T18:47:20.674Z,17.11
2022-07-28T18:52:23.686Z,17.18
2022-07-28T18:57:25.931Z,16.69
2022-07-28T19:02:28.081Z,17.33
2022-07-28T19:07:30.647Z,17.65
2022-07-28T19:12:34.339Z,17.11
2022-07-28T19:17:37.105Z,16.82
2022-07-28T19:22:40.150Z,17.65
2022-07-28T19:27:42.572Z,19.11
2022-07-28T19:32:44.552Z,17.67
2022-07-28T19:37:46.581Z,17.74
2022-07-28T19:42:48.787Z,17.93
2022-07-28T19:47:51.059Z,17.99
2022-07-28T19:52:53.393Z,16.70
2022-07-28T19:57:55.498Z,16.78
2022-07-28T20:02:57.722Z,16.05
2022-07-28T20:08:00.274Z,16.42
2022-07-28T20:13:03.489Z,16.41
2022-07-28T20:18:05.675Z,18.01
2022-07-28T20:23:07.606Z,17.97
2022-07-28T20:28:09.943Z,17.59
2022-07-28T20:33:12.071Z,17.51
2022-07-28T20:38:14.182Z,17.49
2022-07-28T20:43:16.204Z,18.30
2022-07-28T20:48:18.417Z,18.44
2022-07-28T20:53:20.341Z,18.08
2022-07-28T20:58:22.269Z,18.55
2022-07-28T21:03:26.287Z,19.70
2022-07-28T21:08:28.593Z,18.60
2022-07-28T21:13:30.739Z,19.53
2022-07-28T21:18:32.806Z,18.09
2022-07-28T21:23:35.329Z,19.05
2022-07-28T21:28:55.900Z,20.13
2022-07-28T21:33:58.011Z,18.88
2022-07-28T21:39:00.239Z,20.78
2022-07-28T21:44:04.166Z,19.73
2022-07-28T21:49:06.478Z,19.62
2022-07-28T21:54:08.789Z,20.42
2022-07-28T21:59:10.967Z,21.56
2022-07-28T22:04:13.609Z,21.42
2022-07-28T22:09:16.240Z,21.25
2022-07-28T22:14:18.571Z,21.19
2022-07-28T22:19:21.006Z,22.67
2022-07-28T22:24:23.177Z,22.18
2022-07-28T22:29:25.346Z,22.42
2022-07-28T22:34:28.285Z,23.67
2022-07-28T22:39:30.374Z,23.27
2022-07-28T22:44:33.468Z,23.90
2022-07-28T22:49:35.861Z,23.29
2022-07-28T22:54:39.314Z,22.86
2022-07-28T22:59:42.414Z,24.24
2022-07-28T23:04:51.860Z,23.31
2022-07-28T23:09:58.047Z,23.44
2022-07-28T23:15:00.271Z,24.23
2022-07-28T23:20:02.548Z,23.35
2022-07-28T23:25:05.131Z,24.16
2022-07-28T23:30:07.491Z,23.78
2022-07-28T23:35:09.877Z,25.21
2022-07-28T23:40:12.662Z,23.74
2022-07-28T23:45:15.122Z,23.31
2022-07-28T23:50:17.280Z,24.20
2022-07-28T23:55:22.314Z,23.57
